CheckWX is a tool to help pilots better visualize weather data.  It is not intended as a substitute for an official pre-flight weather briefing.

20:18:44 UTC

KSTJ METAR
Rosecrans Memorial Airport
St Joseph, Missouri, USA
Current

26 mins ago

KSTJ 111953Z 28007KT 10SM CLR 32/22 A2996 RMK AO2 SLP135 T03170222
Observed
Jul-11 @ 19:53 UTC
Wind
  • 280° at 7 KTS
Visibility
10 SM
Flight Rules
VFR
Cloud Levels
  • Clear skies
Temperature
32°C / 90°F
Dewpoint
22°C / 72°F
Humidity
55%
Altimeter
29.96" Hg
Pressure
1014.52 hPa
Previous

1 hour ago

KSTJ 111853Z 29008KT 10SM CLR 31/22 A2998 RMK AO2 SLP142 T03110217
Observed
Jul-11 @ 18:53 UTC
Wind
  • 290° at 8 KTS
Visibility
10 SM
Flight Rules
VFR
Cloud Levels
  • Clear skies
Temperature
31°C / 88°F
Dewpoint
22°C / 72°F
Humidity
59%
Altimeter
29.98" Hg
Pressure
1015.22 hPa
Previous

2 hours ago

KSTJ 111753Z 31007KT 290V360 10SM CLR 31/23 A2999 RMK AO2 SLP145 T03110228 10311 20228 50003
Observed
Jul-11 @ 17:53 UTC
Wind
  • 310° at 7 KTS
Visibility
10 SM
Flight Rules
VFR
Cloud Levels
  • Clear skies
Temperature
31°C / 88°F
Dewpoint
23°C / 73°F
Humidity
62%
Altimeter
29.99" Hg
Pressure
1015.62 hPa